Time;durP1;ratioP1;P1;durP2;ratioP2;P2;SDS_P1;SDS_P2;PMS_P1;PMS_P2;Temp;Humidity;BMP_temperature;BMP_pressure;BME280_temperature;BME280_humidity;BME280_pressure;Samples;Min_cycle;Max_cycle;Signal;HPM_P1;HPM_P2
2024/04/21 00:00:11;;;;;;;9.48;1.52;;;;;;;3.91;100.00;68822.22;5482668;26;19994;-59
2024/04/21 00:02:39;;;;;;;9.23;1.60;;;;;;;3.84;100.00;68817.84;5482508;26;19998;-59
2024/04/21 00:05:12;;;;;;;5.65;1.27;;;;;;;3.75;100.00;68802.25;5485027;26;20071;-59
2024/04/21 00:07:39;;;;;;;6.63;1.15;;;;;;;3.73;100.00;68799.91;5487529;26;20006;-59
2024/04/21 00:10:10;;;;;;;4.78;1.15;;;;;;;3.69;100.00;68800.44;5517950;26;19998;-58
2024/04/21 00:12:38;;;;;;;6.63;1.90;;;;;;;3.73;100.00;68800.47;5524215;26;20005;-58
2024/04/21 00:15:10;;;;;;;6.65;1.52;;;;;;;3.68;100.00;68794.09;5524157;25;20049;-58
2024/04/21 00:17:37;;;;;;;5.67;1.60;;;;;;;3.70;100.00;68797.00;5524061;26;19989;-58
2024/04/21 00:20:09;;;;;;;3.33;1.15;;;;;;;3.71;100.00;68798.16;5524094;26;20776;-58
2024/04/21 00:22:39;;;;;;;10.35;1.27;;;;;;;3.71;100.00;68800.75;5524029;25;20004;-58
2024/04/21 00:25:10;;;;;;;6.63;1.10;;;;;;;3.77;100.00;68807.13;5523006;26;20009;-58
2024/04/21 00:27:39;;;;;;;11.25;1.30;;;;;;;3.77;100.00;68807.13;5519527;26;19997;-58
2024/04/21 00:30:11;;;;;;;7.57;1.55;;;;;;;3.82;100.00;68807.22;5521523;26;19998;-58
2024/04/21 00:32:39;;;;;;;9.23;1.80;;;;;;;3.77;100.00;68801.97;5520638;26;20459;-58
2024/04/21 00:35:09;;;;;;;6.03;1.30;;;;;;;3.73;100.00;68797.31;5518452;26;19993;-58
2024/04/21 00:37:39;;;;;;;9.05;1.58;;;;;;;3.67;100.00;68796.09;5518375;26;20407;-57
2024/04/21 00:40:11;;;;;;;8.32;1.45;;;;;;;3.64;100.00;68789.47;5519229;26;20025;-58
2024/04/21 00:42:38;;;;;;;13.15;1.95;;;;;;;3.53;100.00;68777.88;5519506;25;20002;-58
2024/04/21 00:45:09;;;;;;;11.60;1.77;;;;;;;3.48;100.00;68774.63;5489261;26;20005;-58
2024/04/21 00:47:49;;;;;;;9.50;2.05;;;;;;;3.44;100.00;68770.00;5519028;26;20045;-58
2024/04/21 00:50:19;;;;;;;11.88;1.67;;;;;;;3.49;100.00;68770.06;5517379;26;20002;-57
2024/04/21 00:52:50;;;;;;;8.52;1.27;;;;;;;3.52;100.00;68773.56;5518167;26;20005;-57
2024/04/21 00:55:21;;;;;;;7.15;1.58;;;;;;;3.55;100.00;68777.59;5522034;26;20037;-57
2024/04/21 00:57:49;;;;;;;7.28;1.30;;;;;;;3.46;100.00;68772.31;5520020;26;20496;-59
2024/04/21 01:00:23;;;;;;;6.47;1.45;;;;;;;3.43;100.00;68765.69;5517715;26;20049;-59
2024/04/21 01:02:51;;;;;;;11.43;1.50;;;;;;;3.31;100.00;68757.50;5519005;26;20459;-58
2024/04/21 01:05:21;;;;;;;7.45;1.20;;;;;;;3.28;100.00;68748.84;5517492;26;20073;-58
2024/04/21 01:07:54;;;;;;;7.28;1.35;;;;;;;3.29;100.00;68752.59;5520870;26;19994;-58
2024/04/21 01:10:22;;;;;;;8.13;1.58;;;;;;;3.30;100.00;68748.59;5520377;26;20425;-59
2024/04/21 01:12:52;;;;;;;10.15;1.65;;;;;;;3.20;100.00;68740.75;5518655;26;20389;-58
2024/04/21 01:15:20;;;;;;;13.32;2.30;;;;;;;3.13;100.00;68735.19;5523138;26;19997;-57
2024/04/21 01:17:50;;;;;;;9.15;1.55;;;;;;;3.05;100.00;68720.75;5522998;26;20005;-59
2024/04/21 01:20:21;;;;;;;9.40;1.50;;;;;;;2.98;100.00;68713.22;5523123;26;20001;-58
2024/04/21 01:22:54;;;;;;;5.00;1.15;;;;;;;2.90;100.00;68709.09;5522440;26;20326;-58
2024/04/21 01:25:22;;;;;;;9.23;1.73;;;;;;;2.80;100.00;68694.94;5523228;26;20004;-59
2024/04/21 01:27:52;;;;;;;7.78;1.35;;;;;;;2.71;100.00;68685.06;5521539;25;19997;-58
2024/04/21 01:30:20;;;;;;;5.00;1.00;;;;;;;2.61;100.00;68674.03;5518657;26;20410;-58
2024/04/21 01:32:50;;;;;;;6.13;1.13;;;;;;;2.58;100.00;68669.97;5487650;26;19997;-58
2024/04/21 01:35:18;;;;;;;9.75;1.25;;;;;;;2.56;100.00;68665.66;5518188;26;19993;-59
2024/04/21 01:37:54;;;;;;;8.05;1.20;;;;;;;2.58;100.00;68670.56;5515845;26;20513;-57
2024/04/21 01:40:21;;;;;;;7.57;1.13;;;;;;;2.62;100.00;68675.22;5522759;25;20009;-58
2024/04/21 01:42:52;;;;;;;6.45;1.20;;;;;;;2.64;100.00;68677.50;5522525;26;20005;-57
2024/04/21 01:45:20;;;;;;;7.32;1.40;;;;;;;2.59;100.00;68671.72;5520093;26;20106;-58
2024/04/21 01:47:50;;;;;;;9.02;1.13;;;;;;;2.52;100.00;68658.44;5485910;26;20005;-58
2024/04/21 01:50:18;;;;;;;9.00;1.35;;;;;;;2.53;100.00;68665.34;5521805;26;20013;-58
2024/04/21 01:52:48;;;;;;;10.88;1.95;;;;;;;2.46;100.00;68656.66;5522589;26;20001;-58
2024/04/21 01:55:19;;;;;;;7.50;1.25;;;;;;;2.47;100.00;68655.81;5521161;25;20371;-58
2024/04/21 01:57:49;;;;;;;10.02;1.50;;;;;;;2.47;100.00;68657.81;5518695;26;20042;-58
2024/04/21 02:00:17;;;;;;;9.13;1.83;;;;;;;2.43;100.00;68650.59;5488833;26;20077;-59
2024/04/21 02:02:50;;;;;;;6.63;1.17;;;;;;;2.46;100.00;68656.66;5518218;25;20353;-58
2024/04/21 02:05:17;;;;;;;5.68;0.98;;;;;;;2.43;100.00;68653.19;5517322;25;19998;-59
2024/04/21 02:07:48;;;;;;;7.88;1.20;;;;;;;2.42;100.00;68652.59;5518364;26;20010;-59
2024/04/21 02:10:18;;;;;;;7.03;1.42;;;;;;;2.44;100.00;68654.31;5489824;26;20030;-59
2024/04/21 02:12:49;;;;;;;5.88;1.00;;;;;;;2.38;100.00;68650.53;5492517;26;20452;-59
2024/04/21 02:15:16;;;;;;;5.32;1.10;;;;;;;2.44;100.00;68657.50;5526070;26;20257;-59
2024/04/21 02:17:49;;;;;;;9.85;1.42;;;;;;;2.45;100.00;68656.06;5525694;26;20004;-59
2024/04/21 02:20:17;;;;;;;7.38;1.00;;;;;;;2.40;100.00;68650.28;5525895;26;20002;-59
2024/04/21 02:22:47;;;;;;;6.13;1.00;;;;;;;2.37;100.00;68646.78;5525879;26;19993;-59
2024/04/21 02:25:16;;;;;;;13.07;1.30;;;;;;;2.35;100.00;68645.06;5526218;26;20013;-59
2024/04/21 02:27:50;;;;;;;5.93;1.30;;;;;;;2.38;100.00;68653.09;5525097;25;20025;-59
2024/04/21 02:30:17;;;;;;;4.97;1.00;;;;;;;2.35;100.00;68647.06;5521441;25;20001;-59
2024/04/21 02:32:50;;;;;;;6.82;1.17;;;;;;;2.41;100.00;68651.44;5522933;26;19997;-59
2024/04/21 02:35:19;;;;;;;9.07;1.58;;;;;;;2.37;100.00;68644.22;5525575;26;20030;-59
2024/04/21 02:37:50;;;;;;;8.27;1.42;;;;;;;2.34;100.00;68645.91;5525704;26;20008;-59
2024/04/21 02:40:17;;;;;;;5.72;1.05;;;;;;;2.35;100.00;68641.91;5525499;26;19998;-59
2024/04/21 02:42:53;;;;;;;9.73;1.42;;;;;;;2.34;100.00;68641.31;5525207;26;20069;-58
2024/04/21 02:45:20;;;;;;;9.05;1.25;;;;;;;2.32;100.00;68639.00;5525368;26;19997;-59
2024/04/21 02:47:51;;;;;;;7.35;1.55;;;;;;;2.35;100.00;68644.47;5524938;25;20025;-59
2024/04/21 02:50:18;;;;;;;9.63;1.40;;;;;;;2.38;100.00;68647.97;5525455;26;20002;-58
2024/04/21 02:52:49;;;;;;;11.88;1.73;;;;;;;2.41;100.00;68651.44;5525318;26;20340;-58
2024/04/21 02:55:17;;;;;;;6.25;1.48;;;;;;;2.47;100.00;68655.81;5525536;26;20045;-58
2024/04/21 02:57:47;;;;;;;7.10;1.33;;;;;;;2.54;100.00;68666.50;5525020;26;19997;-57
2024/04/21 03:00:18;;;;;;;9.57;1.52;;;;;;;2.61;100.00;68676.63;5525095;26;20005;-57
2024/04/21 03:02:48;;;;;;;8.57;1.50;;;;;;;2.66;100.00;68681.84;5525098;25;20025;-57
2024/04/21 03:05:16;;;;;;;9.43;1.85;;;;;;;2.63;100.00;68681.53;5525040;26;19994;-57
2024/04/21 03:07:46;;;;;;;9.15;1.60;;;;;;;2.56;100.00;68665.66;5524211;26;20448;-57
2024/04/21 03:10:14;;;;;;;6.70;1.50;;;;;;;2.53;100.00;68662.75;5525231;26;20030;-57
2024/04/21 03:12:44;;;;;;;12.38;1.65;;;;;;;2.60;100.00;68672.88;5524818;26;19997;-57
2024/04/21 03:15:12;;;;;;;12.13;1.88;;;;;;;2.60;100.00;68672.88;5525187;26;20049;-58
2024/04/21 03:17:45;;;;;;;11.20;2.17;;;;;;;2.54;100.00;68663.34;5523754;26;20005;-57
2024/04/21 03:20:15;;;;;;;9.63;1.85;;;;;;;2.48;100.00;68659.56;5524812;26;20460;-58
2024/04/21 03:22:46;;;;;;;8.85;1.58;;;;;;;2.53;100.00;68667.34;5523900;26;20005;-58
2024/04/21 03:25:14;;;;;;;9.05;1.70;;;;;;;2.52;100.00;68663.59;5524406;26;20069;-58
2024/04/21 03:27:44;;;;;;;11.32;1.80;;;;;;;2.59;100.00;68674.31;5524180;26;19997;-58
2024/04/21 03:30:12;;;;;;;9.95;2.10;;;;;;;2.56;100.00;68668.25;5524219;26;20002;-59
2024/04/21 03:32:45;;;;;;;14.57;2.50;;;;;;;2.60;100.00;68672.31;5520238;25;19998;-58
2024/04/21 03:35:15;;;;;;;12.20;2.10;;;;;;;2.58;100.00;68673.16;5522202;26;20009;-58
2024/04/21 03:37:46;;;;;;;6.88;1.30;;;;;;;2.63;100.00;68673.78;5523901;25;19997;-58
2024/04/21 03:40:16;;;;;;;8.65;1.60;;;;;;;2.67;100.00;68683.59;5524541;26;20001;-57
2024/04/21 03:42:47;;;;;;;11.25;1.67;;;;;;;2.61;100.00;68678.63;5524385;26;20080;-59
2024/04/21 03:45:16;;;;;;;11.90;1.65;;;;;;;2.61;100.00;68676.63;5491960;26;20823;-58
2024/04/21 03:47:49;;;;;;;8.43;1.45;;;;;;;2.65;100.00;68676.09;5524673;26;20444;-58
2024/04/21 03:50:17;;;;;;;5.90;2.03;;;;;;;2.67;100.00;68683.59;5520832;26;20005;-58
2024/04/21 03:52:48;;;;;;;8.05;1.55;;;;;;;2.63;100.00;68670.63;5519299;26;19993;-59
2024/04/21 03:55:15;;;;;;;5.43;1.38;;;;;;;2.63;100.00;68675.78;5520304;25;19989;-58
2024/04/21 03:57:46;;;;;;;7.65;1.45;;;;;;;2.59;100.00;68668.56;5521255;26;19997;-58
2024/04/21 04:00:14;;;;;;;6.15;1.02;;;;;;;2.60;100.00;68670.31;5524091;26;20009;-58
2024/04/21 04:02:44;;;;;;;11.07;1.67;;;;;;;2.61;100.00;68676.63;5523997;26;20026;-58
2024/04/21 04:05:15;;;;;;;7.03;1.00;;;;;;;2.62;100.00;68675.22;5524100;26;19999;-59
2024/04/21 04:07:45;;;;;;;5.38;1.13;;;;;;;2.69;100.00;68680.16;5491332;25;19994;-59
2024/04/21 04:10:13;;;;;;;6.80;1.05;;;;;;;2.70;100.00;68689.63;5524343;26;20305;-58
2024/04/21 04:12:44;;;;;;;3.80;0.90;;;;;;;2.67;100.00;68680.41;5524090;26;20447;-59
2024/04/21 04:15:14;;;;;;;4.15;0.98;;;;;;;2.64;100.00;68680.09;5524211;26;20004;-58
2024/04/21 04:17:45;;;;;;;5.87;0.97;;;;;;;2.62;100.00;68672.03;5479229;26;1152805;-58
2024/04/21 04:20:17;;;;;;;6.18;1.02;;;;;;;2.59;100.00;68668.56;5519286;26;20016;-59
2024/04/21 04:22:47;;;;;;;4.97;1.17;;;;;;;2.64;100.00;68682.66;5518956;26;20002;-58
2024/04/21 04:25:15;;;;;;;5.72;0.95;;;;;;;2.64;100.00;68677.50;5519902;26;20030;-58
2024/04/21 04:27:45;;;;;;;6.50;1.08;;;;;;;2.65;100.00;68678.09;5521919;26;19994;-59
2024/04/21 04:30:13;;;;;;;4.25;0.80;;;;;;;2.60;100.00;68672.88;5523742;26;19997;-59
2024/04/21 04:32:44;;;;;;;6.53;0.88;;;;;;;2.63;100.00;68678.94;5522859;26;20001;-58
2024/04/21 04:35:12;;;;;;;4.75;0.80;;;;;;;2.64;100.00;68682.66;5522051;25;19997;-58
2024/04/21 04:37:45;;;;;;;3.00;0.70;;;;;;;2.65;100.00;68681.25;5523789;25;20069;-59
2024/04/21 04:40:12;;;;;;;6.97;0.90;;;;;;;2.70;100.00;68686.50;5523690;26;20852;-59
2024/04/21 04:42:43;;;;;;;6.82;1.25;;;;;;;2.72;100.00;68688.78;5521042;26;20001;-58
2024/04/21 04:45:11;;;;;;;4.38;0.98;;;;;;;2.79;100.00;68696.34;5519737;26;20001;-59
2024/04/21 04:47:41;;;;;;;2.40;0.77;;;;;;;2.77;100.00;68694.00;5523400;25;20024;-57
2024/04/21 04:50:10;;;;;;;2.33;0.90;;;;;;;2.81;100.00;68696.66;5523475;26;19997;-58
2024/04/21 04:52:41;;;;;;;6.07;1.02;;;;;;;2.84;100.00;68702.72;5523737;26;20006;-59
2024/04/21 04:55:11;;;;;;;5.15;1.00;;;;;;;2.87;100.00;68705.63;5520356;26;20444;-59
2024/04/21 04:57:42;;;;;;;3.78;0.70;;;;;;;2.90;100.00;68711.09;5519637;26;20349;-58
2024/04/21 05:00:10;;;;;;;4.57;0.90;;;;;;;2.92;100.00;68710.81;5552894;25;20322;-59
2024/04/21 05:02:41;;;;;;;5.03;1.40;;;;;;;2.88;100.00;68699.63;5520917;26;20445;-59
2024/04/21 05:05:09;;;;;;;2.72;0.90;;;;;;;2.92;100.00;68708.84;5518184;26;20009;-58
2024/04/21 05:07:41;;;;;;;5.50;1.45;;;;;;;2.92;100.00;68706.25;5521035;26;20077;-58
2024/04/21 05:10:13;;;;;;;5.95;1.17;;;;;;;2.90;100.00;68705.94;5523216;26;20042;-58
2024/04/21 05:12:44;;;;;;;4.82;0.95;;;;;;;2.95;100.00;68709.16;5520419;26;20005;-59
2024/04/21 05:15:12;;;;;;;1.77;0.90;;;;;;;2.91;100.00;68705.09;5519558;26;20001;-59
2024/04/21 05:17:42;;;;;;;4.90;1.00;;;;;;;2.99;100.00;68719.53;5521415;26;20030;-58
2024/04/21 05:20:10;;;;;;;5.05;1.00;;;;;;;3.07;100.00;68725.66;5518986;26;20008;-58
2024/04/21 05:22:40;;;;;;;4.22;1.00;;;;;;;3.10;100.00;68731.72;5517835;26;20015;-58
2024/04/21 05:25:08;;;;;;;6.43;1.10;;;;;;;3.07;100.00;68730.81;5520456;26;20029;-59
2024/04/21 05:27:41;;;;;;;5.55;1.02;;;;;;;3.09;100.00;68730.53;5521416;25;19998;-58
2024/04/21 05:30:13;;;;;;;6.07;1.20;;;;;;;3.11;100.00;68727.72;5520081;26;20727;-57
2024/04/21 05:32:40;;;;;;;5.13;1.25;;;;;;;3.17;100.00;68744.41;5519856;26;20001;-59
2024/04/21 05:35:15;;;;;;;5.30;1.33;;;;;;;3.17;100.00;68734.66;5518693;26;20826;-58
2024/04/21 05:37:44;;;;;;;7.38;1.40;;;;;;;3.19;100.00;68742.16;5518623;26;19993;-58
2024/04/21 05:40:14;;;;;;;4.55;1.27;;;;;;;3.16;100.00;68738.69;5520512;25;20474;-58
2024/04/21 05:42:47;;;;;;;6.20;1.40;;;;;;;3.18;100.00;68735.84;5522214;26;20001;-58
2024/04/21 05:45:17;;;;;;;7.43;1.60;;;;;;;3.13;100.00;68739.78;5523882;25;19997;-59
2024/04/21 05:47:45;;;;;;;7.03;1.60;;;;;;;3.17;100.00;68734.09;5522658;26;19997;-58
2024/04/21 05:50:16;;;;;;;9.68;1.38;;;;;;;3.28;100.00;68748.84;5517531;26;20804;-60
2024/04/21 05:52:44;;;;;;;5.15;1.48;;;;;;;3.27;100.00;68750.28;5518894;26;19997;-58
2024/04/21 05:55:14;;;;;;;8.00;1.90;;;;;;;3.24;100.00;68746.78;5519649;26;20069;-59
2024/04/21 05:57:42;;;;;;;7.15;1.70;;;;;;;3.27;100.00;68750.84;5519424;26;20008;-59
2024/04/21 06:00:15;;;;;;;6.95;1.63;;;;;;;3.31;100.00;68754.91;5519807;26;20002;-59
2024/04/21 06:02:43;;;;;;;7.35;1.63;;;;;;;3.34;100.00;68753.22;5519550;26;20025;-59
2024/04/21 06:05:13;;;;;;;4.40;1.38;;;;;;;3.35;100.00;68755.00;5517375;26;20009;-59
2024/04/21 06:07:41;;;;;;;6.78;1.48;;;;;;;3.36;100.00;68763.28;5485081;26;20025;-59
2024/04/21 06:10:14;;;;;;;6.03;1.50;;;;;;;3.31;100.00;68754.91;5519842;26;20008;-59
2024/04/21 06:12:42;;;;;;;7.32;1.90;;;;;;;3.31;100.00;68749.75;5522572;25;20014;-59
2024/04/21 06:15:15;;;;;;;5.15;1.55;;;;;;;3.29;100.00;68750.03;5518658;26;20396;-59
2024/04/21 06:17:43;;;;;;;5.40;1.10;;;;;;;3.31;100.00;68752.34;5520539;26;20100;-59
2024/04/21 06:20:13;;;;;;;5.47;1.10;;;;;;;3.38;100.00;68763.63;5522879;26;20346;-59
2024/04/21 06:22:44;;;;;;;3.55;1.05;;;;;;;3.42;100.00;68765.09;5523370;26;20001;-59
2024/04/21 06:25:14;;;;;;;5.60;1.23;;;;;;;3.59;100.00;68781.66;5522036;26;19993;-59
2024/04/21 06:27:42;;;;;;;2.75;1.10;;;;;;;3.65;100.00;68796.34;5518930;26;19997;-59
2024/04/21 06:30:15;;;;;;;3.53;0.98;;;;;;;3.78;100.00;68805.72;5518588;26;20004;-59
2024/04/21 06:32:43;;;;;;;5.65;1.30;;;;;;;3.84;100.00;68814.69;5519136;26;20460;-59
2024/04/21 06:35:13;;;;;;;5.63;1.20;;;;;;;3.95;100.00;68821.69;5518392;26;19997;-58
2024/04/21 06:37:41;;;;;;;4.65;1.10;;;;;;;4.06;100.00;68834.47;5484872;26;20759;-58
2024/04/21 06:40:11;;;;;;;4.38;1.40;;;;;;;4.12;100.00;68844.03;5519071;26;20393;-59
2024/04/21 06:42:43;;;;;;;5.35;1.25;;;;;;;4.25;100.00;68860.53;5519221;26;20558;-59
2024/04/21 06:45:16;;;;;;;5.45;1.35;;;;;;;4.44;100.00;68884.59;5517886;26;20069;-60
2024/04/21 06:47:43;;;;;;;5.20;1.48;;;;;;;4.52;100.00;68886.72;5518402;26;20366;-59
2024/04/21 06:50:14;;;;;;;2.88;1.08;;;;;;;4.55;100.00;68892.22;5517506;25;20053;-58
2024/04/21 06:52:42;;;;;;;5.15;1.35;;;;;;;4.54;100.00;68896.81;5518637;26;20409;-59
2024/04/21 06:55:12;;;;;;;7.57;1.52;;;;;;;4.45;100.00;68878.03;5520294;26;20682;-59
2024/04/21 06:57:43;;;;;;;6.28;1.67;;;;;;;4.40;100.00;68872.78;5518796;26;20009;-59
2024/04/21 07:00:17;;;;;;;8.65;1.63;;;;;;;4.30;100.00;68863.75;5521957;26;20074;-58
2024/04/21 07:02:45;;;;;;;8.45;1.60;;;;;;;4.18;100.00;68850.41;5522594;26;20890;-59
2024/04/21 07:05:16;;;;;;;5.88;1.67;;;;;;;4.23;100.00;68858.81;5520218;26;19994;-59
2024/04/21 07:07:43;;;;;;;7.32;1.65;;;;;;;4.27;100.00;68857.69;5522654;26;19989;-60
2024/04/21 07:10:14;;;;;;;12.15;2.55;;;;;;;4.25;100.00;68857.97;5525515;25;20069;-59
2024/04/21 07:12:41;;;;;;;6.53;1.85;;;;;;;4.25;100.00;68861.13;5526064;26;20001;-59
2024/04/21 07:15:12;;;;;;;7.60;2.05;;;;;;;4.28;100.00;68862.03;5521691;26;20082;-58
2024/04/21 07:17:42;;;;;;;10.80;2.33;;;;;;;4.34;100.00;68868.41;5521745;26;20508;-59
2024/04/21 07:20:12;;;;;;;13.50;2.67;;;;;;;4.37;100.00;68872.47;5523656;26;20287;-60
2024/04/21 07:22:40;;;;;;;9.82;2.55;;;;;;;4.43;100.00;68878.88;5523538;26;20004;-60
2024/04/21 07:25:11;;;;;;;11.60;2.50;;;;;;;4.61;100.00;68896.00;5489388;26;20009;-60
2024/04/21 07:27:53;;;;;;;10.82;2.55;;;;;;;4.88;100.00;68926.78;5526049;25;20037;-60
2024/04/21 07:30:21;;;;;;;9.02;2.80;;;;;;;5.04;100.00;68949.97;5524276;25;20370;-59
2024/04/21 07:32:54;;;;;;;7.18;2.53;;;;;;;5.05;100.00;68948.56;5489291;26;20361;-59
2024/04/21 07:35:22;;;;;;;11.80;3.78;;;;;;;5.04;100.00;68942.22;5524305;26;20068;-59
2024/04/21 07:37:52;;;;;;;10.18;3.50;;;;;;;5.10;100.00;68954.38;5492952;26;20456;-59
2024/04/21 07:40:19;;;;;;;11.00;3.78;;;;;;;5.18;100.00;68961.06;5525931;26;20454;-59
2024/04/21 07:42:50;;;;;;;15.18;3.55;;;;;;;5.32;100.00;68978.78;5524130;26;20439;-59
2024/04/21 07:45:18;;;;;;;10.95;3.85;;;;;;;5.54;100.00;69006.91;5522031;26;20068;-59
2024/04/21 07:47:48;;;;;;;10.40;3.55;;;;;;;5.69;100.00;69021.19;5520976;26;20008;-59
2024/04/21 07:50:19;;;;;;;13.35;4.70;;;;;;;5.64;100.00;69014.81;5520512;26;20009;-59
2024/04/21 07:52:49;;;;;;;14.13;4.65;;;;;;;5.57;100.00;69005.22;5525338;26;19997;-59
2024/04/21 07:55:17;;;;;;;11.10;4.85;;;;;;;5.75;100.00;69025.00;5525772;26;19997;-59
2024/04/21 07:57:47;;;;;;;12.07;4.45;;;;;;;5.93;100.00;69045.94;5525540;26;20008;-59
2024/04/21 08:00:15;;;;;;;12.25;3.67;;;;;;;5.95;100.00;69049.69;5525920;26;19997;-59
2024/04/21 08:02:45;;;;;;;10.55;3.20;;;;;;;6.15;100.00;69072.97;5522212;26;20041;-59
2024/04/21 08:05:13;;;;;;;22.42;4.30;;;;;;;6.40;100.00;69095.69;5487660;26;20410;-49
2024/04/21 08:07:46;;;;;;;11.63;3.08;;;;;;;6.52;100.00;69114.84;5524826;26;20806;-48
2024/04/21 08:10:14;;;;;;;12.65;2.40;;;;;;;6.53;100.00;69116.00;5525302;26;20369;-48
2024/04/21 08:12:45;;;;;;;10.00;2.15;;;;;;;6.63;100.00;69123.88;5525257;26;19998;-49
2024/04/21 08:15:12;;;;;;;7.93;1.80;;;;;;;6.82;100.00;69148.00;5525285;26;20425;-48
2024/04/21 08:17:43;;;;;;;10.68;2.33;;;;;;;6.94;100.00;69165.13;5524831;26;20005;-47
2024/04/21 08:20:10;;;;;;;7.45;2.30;;;;;;;7.01;100.00;69170.09;5525671;26;20451;-49
2024/04/21 08:22:41;;;;;;;7.93;2.05;;;;;;;6.70;100.00;69132.03;5525402;26;20390;-49
2024/04/21 08:25:11;;;;;;;9.70;2.30;;;;;;;6.72;100.00;69137.53;5492628;26;20002;-47
2024/04/21 08:27:41;;;;;;;11.65;2.10;;;;;;;6.80;100.00;69146.25;5524967;26;20321;-48
2024/04/21 08:30:10;;;;;;;12.15;2.05;;;;;;;6.74;100.00;69141.84;5525133;25;20012;-47
2024/04/21 08:32:41;;;;;;;14.10;2.33;;;;;;;6.63;100.00;69129.06;5524645;26;20429;-48
2024/04/21 08:35:08;;;;;;;6.38;1.52;;;;;;;6.56;100.00;69116.31;5524982;26;20012;-47
2024/04/21 08:37:39;;;;;;;10.38;2.05;;;;;;;6.59;100.00;69120.38;5524785;26;20037;-47
2024/04/21 08:40:08;;;;;;;5.13;1.42;;;;;;;6.75;100.00;69141.00;5524838;25;20005;-48
2024/04/21 08:42:44;;;;;;;7.07;1.90;;;;;;;6.84;100.00;69150.88;5524170;26;20325;-46
2024/04/21 08:45:13;;;;;;;9.52;1.60;;;;;;;6.87;100.00;69151.22;5525222;26;20074;-48
2024/04/21 08:47:45;;;;;;;8.90;1.83;;;;;;;6.82;100.00;69148.00;5524642;26;20025;-46
2024/04/21 08:50:13;;;;;;;;;;;;;;;6.90;100.00;69155.28;5525318;26;20001;-46
2024/04/21 08:52:47;;;;;;;13.77;2.90;;;;;;;6.88;100.00;69155.53;5492302;26;19923;-58
2024/04/21 08:55:14;;;;;;;9.77;2.30;;;;;;;6.79;100.00;69141.91;5524916;25;20016;-59
2024/04/21 08:57:48;;;;;;;10.20;2.03;;;;;;;6.86;100.00;69155.81;5523296;26;19997;-59
2024/04/21 09:00:19;;;;;;;6.07;1.70;;;;;;;7.16;100.00;69184.38;5520477;26;19993;-59
2024/04/21 09:02:50;;;;;;;7.15;2.25;;;;;;;7.40;100.00;69211.16;5523033;25;20001;-59
2024/04/21 09:05:19;;;;;;;8.50;2.28;;;;;;;7.59;100.00;69233.28;5524551;26;20047;-59
2024/04/21 09:07:50;;;;;;;8.40;2.53;;;;;;;7.72;100.00;69249.84;5519714;26;20010;-58
2024/04/21 09:10:17;;;;;;;5.43;1.98;;;;;;;7.78;100.00;69256.81;5520970;26;20067;-59
2024/04/21 09:12:52;;;;;;;6.93;2.05;;;;;;;7.73;100.00;69251.00;5523977;25;20005;-58
2024/04/21 09:15:20;;;;;;;7.13;2.60;;;;;;;7.83;100.00;69260.06;5524501;25;20001;-58
2024/04/21 09:17:50;;;;;;;7.38;2.35;;;;;;;8.08;100.00;69288.59;5523793;26;20050;-58
2024/04/21 09:20:21;;;;;;;7.70;3.10;;;;;;;8.24;100.00;69308.66;5523555;26;20008;-59
2024/04/21 09:22:49;;;;;;;7.38;2.42;;;;;;;8.49;100.00;69339.81;5518232;26;20033;-59
2024/04/21 09:25:21;;;;;;;5.97;2.33;;;;;;;8.51;100.00;69336.38;5520083;26;20608;-59
2024/04/21 09:27:51;;;;;;;8.63;2.78;;;;;;;8.73;100.00;69364.63;5520342;26;20504;-59
2024/04/21 09:30:22;;;;;;;10.65;2.80;;;;;;;9.00;100.00;69391.72;5519774;26;19997;-59
2024/04/21 09:32:49;;;;;;;6.60;2.35;;;;;;;9.13;100.00;69414.69;5520470;26;20029;-59
2024/04/21 09:35:20;;;;;;;6.45;2.53;;;;;;;9.26;100.00;69427.25;5523630;26;20307;-59
2024/04/21 09:37:51;;;;;;;5.97;2.30;;;;;;;9.42;100.00;69440.13;5523767;26;19997;-59
2024/04/21 09:40:22;;;;;;;6.45;2.47;;;;;;;9.63;100.00;69468.66;5524202;26;19997;-59
2024/04/21 09:42:54;;;;;;;8.05;2.95;;;;;;;9.81;100.00;69486.47;5523867;26;19994;-59
2024/04/21 09:45:28;;;;;;;7.40;2.67;;;;;;;10.15;100.00;69525.53;5520320;26;20009;-59
2024/04/21 09:47:58;;;;;;;6.85;2.40;;;;;;;10.50;100.00;69564.66;5518885;26;20008;-60
2024/04/21 09:50:30;;;;;;;8.05;2.35;;;;;;;10.79;100.00;69597.91;5518495;26;20440;-59
2024/04/21 09:53:02;;;;;;;9.30;2.78;;;;;;;10.72;100.00;69589.19;5518905;26;20005;-59
2024/04/21 09:55:37;;;;;;;5.78;2.40;;;;;;;10.80;100.00;69596.47;5519166;26;20077;-59
2024/04/21 09:58:12;;;;;;;5.88;2.13;;;;;;;10.81;100.00;69597.66;5520172;26;19997;-59
2024/04/21 10:00:44;;;;;;;5.90;2.30;;;;;;;10.71;100.00;69582.78;5523666;26;19998;-60
2024/04/21 10:03:12;;;;;;;5.13;2.30;;;;;;;10.87;100.00;69603.50;5523873;26;20453;-59
2024/04/21 10:05:44;;;;;;;5.63;2.65;;;;;;;11.12;99.65;69632.09;5523130;26;20033;-59
2024/04/21 10:08:12;;;;;;;7.97;2.77;;;;;;;11.49;100.00;69674.72;5523595;26;20008;-59
2024/04/21 10:10:44;;;;;;;3.92;2.33;;;;;;;11.36;95.29;69656.91;5522635;26;20343;-59
2024/04/21 10:13:15;;;;;;;4.97;2.35;;;;;;;11.27;94.16;69649.59;5523677;26;20309;-59
2024/04/21 10:15:46;;;;;;;5.90;2.78;;;;;;;10.77;95.79;69592.38;5490776;26;20328;-59
2024/04/21 10:18:20;;;;;;;5.03;2.40;;;;;;;10.87;91.29;69603.50;5523319;26;21106;-59
2024/04/21 10:20:51;;;;;;;6.05;2.55;;;;;;;10.92;93.83;69609.91;5516645;26;20005;-59
2024/04/21 10:23:19;;;;;;;5.60;2.58;;;;;;;10.94;95.62;69612.22;5519265;26;20098;-59
2024/04/21 10:25:50;;;;;;;5.55;2.70;;;;;;;11.31;97.29;69653.69;5518343;26;20009;-59
2024/04/21 10:28:30;;;;;;;4.85;2.50;;;;;;;11.57;91.92;69682.88;5519127;26;20022;-59
2024/04/21 10:31:07;;;;;;;8.18;3.05;;;;;;;11.82;96.76;69706.25;5518737;26;20074;-59
2024/04/21 10:33:38;;;;;;;6.18;3.15;;;;;;;11.91;92.82;69726.66;5522210;26;20009;-59
2024/04/21 10:36:20;;;;;;;6.20;2.80;;;;;;;12.18;88.90;69747.19;5519995;26;20016;-59
2024/04/21 10:38:52;;;;;;;6.80;3.07;;;;;;;11.90;82.80;69715.03;5522672;26;20574;-59
2024/04/21 10:41:24;;;;;;;5.57;2.60;;;;;;;11.85;81.27;69715.00;5525910;26;19997;-59
2024/04/21 10:43:57;;;;;;;6.13;2.95;;;;;;;11.69;82.10;69699.50;5494213;26;20007;-59
2024/04/21 10:46:29;;;;;;;5.03;2.65;;;;;;;11.88;85.16;69715.31;5526671;26;20001;-60
2024/04/21 10:49:03;;;;;;;4.90;2.92;;;;;;;11.65;80.63;69692.81;5526561;26;20002;-60
2024/04/21 10:51:31;;;;;;;6.05;2.92;;;;;;;11.72;85.08;69705.06;5526307;26;20345;-60
2024/04/21 10:54:01;;;;;;;5.20;2.50;;;;;;;11.74;87.76;69705.38;5526436;26;20050;-60
2024/04/21 10:56:29;;;;;;;5.68;3.00;;;;;;;11.68;80.66;69700.97;5526376;26;19998;-60
2024/04/21 10:59:04;;;;;;;5.20;3.00;;;;;;;11.93;82.41;69723.75;5526429;26;20008;-60
2024/04/21 11:01:32;;;;;;;6.85;3.00;;;;;;;11.92;82.20;69723.19;5526332;26;20005;-59
2024/04/21 11:04:04;;;;;;;4.93;2.75;;;;;;;11.89;79.63;69719.69;5523242;26;20336;-60
2024/04/21 11:06:32;;;;;;;4.28;2.90;;;;;;;11.59;82.71;69685.22;5520577;26;20030;-59
2024/04/21 11:09:02;;;;;;;6.25;2.70;;;;;;;11.55;85.14;69680.53;5526145;26;20008;-60
2024/04/21 11:11:30;;;;;;;6.72;3.13;;;;;;;12.02;88.28;69733.72;5526130;26;19998;-59
2024/04/21 11:14:06;;;;;;;5.60;3.08;;;;;;;12.37;75.91;69770.84;5524116;26;20431;-61
2024/04/21 11:16:34;;;;;;;4.60;2.85;;;;;;;12.76;71.33;69812.63;5489092;25;20073;-60
2024/04/21 11:19:04;;;;;;;5.05;2.75;;;;;;;12.95;72.98;69840.09;5522203;26;20455;-61
2024/04/21 11:21:33;;;;;;;5.63;2.80;;;;;;;13.04;66.48;69849.44;5520138;26;20050;-60
2024/04/21 11:24:03;;;;;;;5.70;3.00;;;;;;;12.84;65.70;69829.84;5521704;25;20459;-60
2024/04/21 11:26:31;;;;;;;6.70;3.10;;;;;;;13.25;66.69;69871.41;5522349;26;20130;-60
2024/04/21 11:29:01;;;;;;;3.95;2.20;;;;;;;13.59;63.83;69917.84;5521694;26;20008;-60
2024/04/21 11:31:32;;;;;;;4.50;2.35;;;;;;;13.60;58.53;69910.59;5525166;25;20005;-60
2024/04/21 11:34:03;;;;;;;4.80;2.33;;;;;;;13.72;60.46;69929.28;5522313;26;19997;-60
2024/04/21 11:36:31;;;;;;;4.43;2.60;;;;;;;13.34;58.07;69881.91;5522653;26;19998;-60
2024/04/21 11:39:03;;;;;;;5.18;2.70;;;;;;;13.49;61.87;69898.88;5525810;26;19997;-60
2024/04/21 11:41:31;;;;;;;5.78;2.50;;;;;;;13.74;58.37;69934.81;5525909;26;19998;-60
2024/04/21 11:44:01;;;;;;;5.53;2.47;;;;;;;14.27;57.48;69989.28;5524119;25;20021;-60